sensor_id;sensor_type;location;lat;lon;timestamp;P1;durP1;ratioP1;P2;durP2;ratioP2
57609;SDS011;43435;46.186;9.024;2024-03-08T09:53:32;15.95;;;9.63;;
57609;SDS011;43435;46.186;9.024;2024-03-08T09:55:58;14.02;;;7.28;;
57609;SDS011;43435;46.186;9.024;2024-03-08T09:58:24;16.27;;;8.20;;
57609;SDS011;43435;46.186;9.024;2024-03-08T10:00:58;13.98;;;8.05;;
57609;SDS011;43435;46.186;9.024;2024-03-08T10:03:26;13.75;;;8.52;;
57609;SDS011;43435;46.186;9.024;2024-03-08T10:05:52;16.67;;;9.35;;
57609;SDS011;43435;46.186;9.024;2024-03-08T10:08:17;16.45;;;10.00;;
57609;SDS011;43435;46.186;9.024;2024-03-08T10:10:42;16.55;;;10.32;;
57609;SDS011;43435;46.186;9.024;2024-03-08T10:13:08;20.50;;;12.20;;
57609;SDS011;43435;46.186;9.024;2024-03-08T10:15:35;24.27;;;12.85;;
57609;SDS011;43435;46.186;9.024;2024-03-08T10:18:01;23.17;;;12.60;;
57609;SDS011;43435;46.186;9.024;2024-03-08T10:20:27;23.20;;;12.13;;
57609;SDS011;43435;46.186;9.024;2024-03-08T10:22:58;18.20;;;11.98;;
57609;SDS011;43435;46.186;9.024;2024-03-08T10:25:24;21.35;;;12.35;;
57609;SDS011;43435;46.186;9.024;2024-03-08T10:27:52;20.02;;;12.80;;
57609;SDS011;43435;46.186;9.024;2024-03-08T10:30:17;25.38;;;12.88;;
57609;SDS011;43435;46.186;9.024;2024-03-08T10:32:46;19.90;;;12.30;;
57609;SDS011;43435;46.186;9.024;2024-03-08T10:35:12;20.15;;;12.27;;
57609;SDS011;43435;46.186;9.024;2024-03-08T10:37:47;20.23;;;12.27;;
57609;SDS011;43435;46.186;9.024;2024-03-08T10:40:28;21.55;;;12.82;;
57609;SDS011;43435;46.186;9.024;2024-03-08T10:45:26;21.42;;;13.48;;
57609;SDS011;43435;46.186;9.024;2024-03-08T10:48:16;20.25;;;12.68;;
57609;SDS011;43435;46.186;9.024;2024-03-08T10:50:59;25.65;;;13.48;;
57609;SDS011;43435;46.186;9.024;2024-03-08T10:53:27;23.35;;;14.35;;
57609;SDS011;43435;46.186;9.024;2024-03-08T10:55:53;21.02;;;12.68;;
57609;SDS011;43435;46.186;9.024;2024-03-08T10:58:19;22.45;;;12.30;;
57609;SDS011;43435;46.186;9.024;2024-03-08T11:00:46;21.73;;;12.73;;
57609;SDS011;43435;46.186;9.024;2024-03-08T11:06:05;20.40;;;12.40;;
57609;SDS011;43435;46.186;9.024;2024-03-08T11:08:31;21.98;;;12.20;;
57609;SDS011;43435;46.186;9.024;2024-03-08T11:10:57;20.30;;;12.18;;
57609;SDS011;43435;46.186;9.024;2024-03-08T11:13:32;22.40;;;12.50;;
57609;SDS011;43435;46.186;9.024;2024-03-08T11:16:09;20.75;;;12.15;;
57609;SDS011;43435;46.186;9.024;2024-03-08T11:18:36;18.92;;;11.93;;
57609;SDS011;43435;46.186;9.024;2024-03-08T11:21:06;20.50;;;13.32;;
57609;SDS011;43435;46.186;9.024;2024-03-08T11:23:37;24.17;;;12.43;;
57609;SDS011;43435;46.186;9.024;2024-03-08T11:26:02;20.00;;;12.23;;
57609;SDS011;43435;46.186;9.024;2024-03-08T11:28:32;21.30;;;12.05;;
57609;SDS011;43435;46.186;9.024;2024-03-08T11:33:29;20.90;;;12.98;;
57609;SDS011;43435;46.186;9.024;2024-03-08T11:36:02;18.58;;;11.15;;
57609;SDS011;43435;46.186;9.024;2024-03-08T11:38:31;21.27;;;11.75;;
57609;SDS011;43435;46.186;9.024;2024-03-08T11:40:57;20.67;;;12.25;;
57609;SDS011;43435;46.186;9.024;2024-03-08T11:43:23;20.75;;;12.27;;
57609;SDS011;43435;46.186;9.024;2024-03-08T11:45:49;17.90;;;10.75;;
57609;SDS011;43435;46.186;9.024;2024-03-08T11:48:15;18.83;;;11.20;;
57609;SDS011;43435;46.186;9.024;2024-03-08T11:50:40;19.38;;;11.95;;
57609;SDS011;43435;46.186;9.024;2024-03-08T11:53:08;21.55;;;10.65;;
57609;SDS011;43435;46.186;9.024;2024-03-08T11:55:33;19.58;;;11.00;;
57609;SDS011;43435;46.186;9.024;2024-03-08T11:58:03;18.05;;;9.77;;
57609;SDS011;43435;46.186;9.024;2024-03-08T12:00:32;19.17;;;10.20;;
57609;SDS011;43435;46.186;9.024;2024-03-08T12:03:03;16.15;;;10.63;;
57609;SDS011;43435;46.186;9.024;2024-03-08T12:05:30;18.60;;;10.85;;
57609;SDS011;43435;46.186;9.024;2024-03-08T12:07:59;16.10;;;9.38;;
57609;SDS011;43435;46.186;9.024;2024-03-08T12:10:25;17.02;;;9.65;;
57609;SDS011;43435;46.186;9.024;2024-03-08T12:12:52;15.18;;;9.68;;
57609;SDS011;43435;46.186;9.024;2024-03-08T12:15:18;17.08;;;10.15;;
57609;SDS011;43435;46.186;9.024;2024-03-08T12:17:46;17.58;;;9.40;;
57609;SDS011;43435;46.186;9.024;2024-03-08T12:20:23;18.77;;;10.00;;
57609;SDS011;43435;46.186;9.024;2024-03-08T12:22:55;17.25;;;10.25;;
57609;SDS011;43435;46.186;9.024;2024-03-08T12:25:27;18.35;;;10.68;;
57609;SDS011;43435;46.186;9.024;2024-03-08T12:27:56;16.45;;;10.38;;
57609;SDS011;43435;46.186;9.024;2024-03-08T12:30:23;17.23;;;11.02;;
57609;SDS011;43435;46.186;9.024;2024-03-08T12:32:58;19.50;;;11.80;;
57609;SDS011;43435;46.186;9.024;2024-03-08T12:35:25;17.25;;;10.50;;
57609;SDS011;43435;46.186;9.024;2024-03-08T12:37:52;22.00;;;10.20;;
57609;SDS011;43435;46.186;9.024;2024-03-08T12:40:25;15.35;;;10.13;;
57609;SDS011;43435;46.186;9.024;2024-03-08T12:42:53;17.30;;;9.95;;
57609;SDS011;43435;46.186;9.024;2024-03-08T12:45:18;18.52;;;10.75;;
57609;SDS011;43435;46.186;9.024;2024-03-08T12:47:43;17.08;;;10.60;;
57609;SDS011;43435;46.186;9.024;2024-03-08T12:50:09;17.80;;;9.43;;
57609;SDS011;43435;46.186;9.024;2024-03-08T12:52:35;15.90;;;10.32;;
57609;SDS011;43435;46.186;9.024;2024-03-08T12:55:01;16.80;;;10.85;;
57609;SDS011;43435;46.186;9.024;2024-03-08T12:57:27;15.95;;;9.88;;
57609;SDS011;43435;46.186;9.024;2024-03-08T12:59:53;15.30;;;9.93;;
57609;SDS011;43435;46.186;9.024;2024-03-08T13:02:19;16.65;;;10.73;;
57609;SDS011;43435;46.186;9.024;2024-03-08T13:04:45;17.92;;;9.60;;
57609;SDS011;43435;46.186;9.024;2024-03-08T13:07:10;18.65;;;10.15;;
57609;SDS011;43435;46.186;9.024;2024-03-08T13:09:36;18.33;;;10.38;;
57609;SDS011;43435;46.186;9.024;2024-03-08T13:12:02;16.63;;;10.32;;
57609;SDS011;43435;46.186;9.024;2024-03-08T13:14:28;20.38;;;9.77;;
57609;SDS011;43435;46.186;9.024;2024-03-08T13:16:56;16.48;;;10.15;;
57609;SDS011;43435;46.186;9.024;2024-03-08T13:19:23;16.83;;;9.23;;
57609;SDS011;43435;46.186;9.024;2024-03-08T13:21:49;18.23;;;10.10;;
57609;SDS011;43435;46.186;9.024;2024-03-08T13:24:14;16.58;;;9.45;;
57609;SDS011;43435;46.186;9.024;2024-03-08T13:26:41;16.85;;;10.25;;
57609;SDS011;43435;46.186;9.024;2024-03-08T13:29:08;17.35;;;9.73;;
57609;SDS011;43435;46.186;9.024;2024-03-08T13:31:33;15.05;;;8.55;;
57609;SDS011;43435;46.186;9.024;2024-03-08T13:34:01;15.63;;;8.90;;
57609;SDS011;43435;46.186;9.024;2024-03-08T13:36:26;14.30;;;8.70;;
57609;SDS011;43435;46.186;9.024;2024-03-08T13:39:00;18.45;;;9.95;;
57609;SDS011;43435;46.186;9.024;2024-03-08T13:41:25;14.63;;;9.25;;
57609;SDS011;43435;46.186;9.024;2024-03-08T13:43:51;15.40;;;9.30;;
57609;SDS011;43435;46.186;9.024;2024-03-08T13:46:18;16.48;;;9.32;;
57609;SDS011;43435;46.186;9.024;2024-03-08T13:48:43;14.75;;;9.25;;
57609;SDS011;43435;46.186;9.024;2024-03-08T13:51:09;12.40;;;8.15;;
57609;SDS011;43435;46.186;9.024;2024-03-08T13:53:40;14.60;;;8.25;;
57609;SDS011;43435;46.186;9.024;2024-03-08T13:56:06;13.50;;;8.07;;
57609;SDS011;43435;46.186;9.024;2024-03-08T13:58:31;13.75;;;8.35;;
57609;SDS011;43435;46.186;9.024;2024-03-08T14:00:57;16.15;;;8.30;;
57609;SDS011;43435;46.186;9.024;2024-03-08T14:03:22;16.60;;;9.05;;
57609;SDS011;43435;46.186;9.024;2024-03-08T14:05:49;19.83;;;9.05;;
57609;SDS011;43435;46.186;9.024;2024-03-08T14:08:14;15.10;;;9.25;;
57609;SDS011;43435;46.186;9.024;2024-03-08T14:10:41;15.18;;;9.43;;
57609;SDS011;43435;46.186;9.024;2024-03-08T14:13:07;17.52;;;9.73;;
57609;SDS011;43435;46.186;9.024;2024-03-08T14:15:33;14.98;;;9.82;;
57609;SDS011;43435;46.186;9.024;2024-03-08T14:18:00;16.00;;;9.88;;
57609;SDS011;43435;46.186;9.024;2024-03-08T14:20:26;17.27;;;10.23;;
57609;SDS011;43435;46.186;9.024;2024-03-08T14:22:52;17.88;;;10.05;;
57609;SDS011;43435;46.186;9.024;2024-03-08T14:25:18;16.63;;;10.02;;
57609;SDS011;43435;46.186;9.024;2024-03-08T14:27:44;16.13;;;9.20;;
57609;SDS011;43435;46.186;9.024;2024-03-08T14:30:10;18.48;;;9.43;;
57609;SDS011;43435;46.186;9.024;2024-03-08T14:32:37;15.57;;;9.70;;
57609;SDS011;43435;46.186;9.024;2024-03-08T14:35:05;15.25;;;9.45;;
57609;SDS011;43435;46.186;9.024;2024-03-08T14:37:30;16.83;;;8.98;;
57609;SDS011;43435;46.186;9.024;2024-03-08T14:39:56;15.15;;;9.20;;
57609;SDS011;43435;46.186;9.024;2024-03-08T14:42:21;16.75;;;10.27;;
57609;SDS011;43435;46.186;9.024;2024-03-08T14:44:47;16.00;;;9.73;;
57609;SDS011;43435;46.186;9.024;2024-03-08T14:47:16;18.33;;;10.23;;
57609;SDS011;43435;46.186;9.024;2024-03-08T14:49:42;16.77;;;9.38;;
57609;SDS011;43435;46.186;9.024;2024-03-08T14:52:07;17.70;;;10.30;;
57609;SDS011;43435;46.186;9.024;2024-03-08T14:54:52;17.58;;;10.43;;
57609;SDS011;43435;46.186;9.024;2024-03-08T14:57:17;17.65;;;9.23;;
57609;SDS011;43435;46.186;9.024;2024-03-08T14:59:42;17.00;;;9.07;;
57609;SDS011;43435;46.186;9.024;2024-03-08T15:02:08;15.05;;;8.75;;
57609;SDS011;43435;46.186;9.024;2024-03-08T15:04:35;14.80;;;7.90;;
57609;SDS011;43435;46.186;9.024;2024-03-08T15:07:00;12.25;;;8.43;;
57609;SDS011;43435;46.186;9.024;2024-03-08T15:09:27;14.30;;;8.52;;
57609;SDS011;43435;46.186;9.024;2024-03-08T15:11:52;11.38;;;7.40;;
57609;SDS011;43435;46.186;9.024;2024-03-08T15:14:19;16.77;;;8.43;;
57609;SDS011;43435;46.186;9.024;2024-03-08T15:16:48;11.50;;;7.22;;
57609;SDS011;43435;46.186;9.024;2024-03-08T15:19:14;12.48;;;7.38;;
57609;SDS011;43435;46.186;9.024;2024-03-08T15:21:40;14.50;;;7.80;;
57609;SDS011;43435;46.186;9.024;2024-03-08T15:24:08;12.98;;;6.95;;
57609;SDS011;43435;46.186;9.024;2024-03-08T15:26:40;13.45;;;7.50;;
57609;SDS011;43435;46.186;9.024;2024-03-08T15:29:06;10.88;;;7.03;;
57609;SDS011;43435;46.186;9.024;2024-03-08T15:31:31;11.35;;;7.05;;
57609;SDS011;43435;46.186;9.024;2024-03-08T15:33:57;13.02;;;7.57;;
57609;SDS011;43435;46.186;9.024;2024-03-08T15:36:30;12.15;;;6.95;;
57609;SDS011;43435;46.186;9.024;2024-03-08T15:38:58;11.65;;;7.13;;
57609;SDS011;43435;46.186;9.024;2024-03-08T15:41:24;10.65;;;6.30;;
57609;SDS011;43435;46.186;9.024;2024-03-08T15:43:51;11.15;;;6.18;;
57609;SDS011;43435;46.186;9.024;2024-03-08T15:46:17;10.48;;;6.68;;
57609;SDS011;43435;46.186;9.024;2024-03-08T15:48:49;12.02;;;6.35;;
57609;SDS011;43435;46.186;9.024;2024-03-08T15:51:16;11.93;;;6.72;;
57609;SDS011;43435;46.186;9.024;2024-03-08T15:53:44;10.63;;;6.47;;
57609;SDS011;43435;46.186;9.024;2024-03-08T15:56:18;9.80;;;6.07;;
57609;SDS011;43435;46.186;9.024;2024-03-08T15:58:48;11.43;;;7.13;;
57609;SDS011;43435;46.186;9.024;2024-03-08T16:01:13;10.10;;;6.55;;
57609;SDS011;43435;46.186;9.024;2024-03-08T16:03:42;12.00;;;6.32;;
57609;SDS011;43435;46.186;9.024;2024-03-08T16:06:09;13.05;;;6.10;;
57609;SDS011;43435;46.186;9.024;2024-03-08T16:08:35;13.88;;;7.53;;
57609;SDS011;43435;46.186;9.024;2024-03-08T16:11:04;15.15;;;7.95;;
57609;SDS011;43435;46.186;9.024;2024-03-08T16:13:32;13.52;;;7.57;;
57609;SDS011;43435;46.186;9.024;2024-03-08T16:15:58;12.07;;;7.70;;
57609;SDS011;43435;46.186;9.024;2024-03-08T16:18:23;17.70;;;8.68;;
57609;SDS011;43435;46.186;9.024;2024-03-08T16:20:50;18.75;;;10.00;;
57609;SDS011;43435;46.186;9.024;2024-03-08T16:23:19;17.92;;;10.18;;
57609;SDS011;43435;46.186;9.024;2024-03-08T16:25:46;17.23;;;10.50;;
57609;SDS011;43435;46.186;9.024;2024-03-08T16:28:12;19.02;;;10.57;;
57609;SDS011;43435;46.186;9.024;2024-03-08T16:30:42;19.42;;;10.27;;
57609;SDS011;43435;46.186;9.024;2024-03-08T16:33:13;18.02;;;10.52;;
57609;SDS011;43435;46.186;9.024;2024-03-08T16:35:39;17.58;;;10.48;;
57609;SDS011;43435;46.186;9.024;2024-03-08T16:38:08;16.55;;;10.27;;
57609;SDS011;43435;46.186;9.024;2024-03-08T16:40:37;21.65;;;12.23;;
57609;SDS011;43435;46.186;9.024;2024-03-08T16:43:03;21.52;;;12.52;;
57609;SDS011;43435;46.186;9.024;2024-03-08T16:45:29;20.85;;;12.20;;
57609;SDS011;43435;46.186;9.024;2024-03-08T16:47:54;19.50;;;11.15;;
57609;SDS011;43435;46.186;9.024;2024-03-08T16:50:19;17.65;;;10.45;;
57609;SDS011;43435;46.186;9.024;2024-03-08T16:52:45;17.10;;;10.25;;
57609;SDS011;43435;46.186;9.024;2024-03-08T16:55:11;15.38;;;10.02;;
57609;SDS011;43435;46.186;9.024;2024-03-08T17:00:10;19.10;;;10.48;;
57609;SDS011;43435;46.186;9.024;2024-03-08T17:02:38;15.90;;;10.20;;
57609;SDS011;43435;46.186;9.024;2024-03-08T17:05:04;17.00;;;10.15;;
57609;SDS011;43435;46.186;9.024;2024-03-08T17:07:31;17.20;;;9.23;;
57609;SDS011;43435;46.186;9.024;2024-03-08T17:09:58;18.20;;;10.55;;
57609;SDS011;43435;46.186;9.024;2024-03-08T17:12:24;19.63;;;9.85;;
57609;SDS011;43435;46.186;9.024;2024-03-08T17:14:50;16.02;;;9.52;;
57609;SDS011;43435;46.186;9.024;2024-03-08T17:17:16;19.27;;;9.98;;
57609;SDS011;43435;46.186;9.024;2024-03-08T17:19:41;15.68;;;10.05;;
57609;SDS011;43435;46.186;9.024;2024-03-08T17:22:07;14.57;;;9.07;;
57609;SDS011;43435;46.186;9.024;2024-03-08T17:24:32;16.20;;;9.10;;
57609;SDS011;43435;46.186;9.024;2024-03-08T17:26:58;15.70;;;9.15;;
57609;SDS011;43435;46.186;9.024;2024-03-08T17:29:23;16.70;;;10.07;;
57609;SDS011;43435;46.186;9.024;2024-03-08T17:31:48;18.67;;;10.10;;
57609;SDS011;43435;46.186;9.024;2024-03-08T17:34:15;17.10;;;9.73;;
57609;SDS011;43435;46.186;9.024;2024-03-08T17:36:43;18.35;;;9.98;;
57609;SDS011;43435;46.186;9.024;2024-03-08T17:39:10;15.02;;;9.68;;
57609;SDS011;43435;46.186;9.024;2024-03-08T17:41:45;17.85;;;10.73;;
57609;SDS011;43435;46.186;9.024;2024-03-08T17:44:15;16.90;;;10.52;;
57609;SDS011;43435;46.186;9.024;2024-03-08T17:46:41;18.92;;;10.25;;
57609;SDS011;43435;46.186;9.024;2024-03-08T17:49:08;17.42;;;9.63;;
57609;SDS011;43435;46.186;9.024;2024-03-08T17:51:34;16.25;;;9.68;;
57609;SDS011;43435;46.186;9.024;2024-03-08T17:54:00;14.75;;;8.77;;
57609;SDS011;43435;46.186;9.024;2024-03-08T17:56:27;16.55;;;9.13;;
57609;SDS011;43435;46.186;9.024;2024-03-08T17:58:53;15.75;;;9.13;;
57609;SDS011;43435;46.186;9.024;2024-03-08T18:01:18;16.42;;;9.32;;
57609;SDS011;43435;46.186;9.024;2024-03-08T18:03:44;14.90;;;8.18;;
57609;SDS011;43435;46.186;9.024;2024-03-08T18:06:10;12.98;;;8.23;;
57609;SDS011;43435;46.186;9.024;2024-03-08T18:08:35;16.45;;;9.18;;
57609;SDS011;43435;46.186;9.024;2024-03-08T18:11:01;17.25;;;9.70;;
57609;SDS011;43435;46.186;9.024;2024-03-08T18:13:27;17.02;;;8.85;;
57609;SDS011;43435;46.186;9.024;2024-03-08T18:15:55;16.42;;;9.50;;
57609;SDS011;43435;46.186;9.024;2024-03-08T18:18:21;19.10;;;9.82;;
57609;SDS011;43435;46.186;9.024;2024-03-08T18:20:47;19.63;;;10.30;;
57609;SDS011;43435;46.186;9.024;2024-03-08T18:23:17;17.63;;;9.90;;
57609;SDS011;43435;46.186;9.024;2024-03-08T18:25:43;18.35;;;10.57;;
57609;SDS011;43435;46.186;9.024;2024-03-08T18:28:09;17.15;;;10.55;;
57609;SDS011;43435;46.186;9.024;2024-03-08T18:30:35;17.92;;;10.43;;
57609;SDS011;43435;46.186;9.024;2024-03-08T18:33:04;16.85;;;10.18;;
57609;SDS011;43435;46.186;9.024;2024-03-08T18:35:30;18.67;;;10.32;;
57609;SDS011;43435;46.186;9.024;2024-03-08T18:37:55;16.85;;;10.50;;
57609;SDS011;43435;46.186;9.024;2024-03-08T18:40:21;17.35;;;9.90;;
57609;SDS011;43435;46.186;9.024;2024-03-08T18:42:48;21.27;;;10.38;;
57609;SDS011;43435;46.186;9.024;2024-03-08T18:45:15;18.70;;;10.68;;
57609;SDS011;43435;46.186;9.024;2024-03-08T18:47:45;16.73;;;9.70;;
57609;SDS011;43435;46.186;9.024;2024-03-08T18:50:15;18.52;;;10.35;;
57609;SDS011;43435;46.186;9.024;2024-03-08T18:52:42;17.40;;;9.88;;
57609;SDS011;43435;46.186;9.024;2024-03-08T18:55:09;20.05;;;10.18;;
57609;SDS011;43435;46.186;9.024;2024-03-08T18:57:40;18.80;;;10.55;;
57609;SDS011;43435;46.186;9.024;2024-03-08T19:00:14;20.42;;;10.70;;
57609;SDS011;43435;46.186;9.024;2024-03-08T19:02:49;15.20;;;9.88;;
57609;SDS011;43435;46.186;9.024;2024-03-08T19:05:19;15.60;;;9.73;;
57609;SDS011;43435;46.186;9.024;2024-03-08T19:07:46;18.75;;;10.85;;
57609;SDS011;43435;46.186;9.024;2024-03-08T19:10:13;19.15;;;10.90;;
57609;SDS011;43435;46.186;9.024;2024-03-08T19:12:43;19.52;;;11.27;;
57609;SDS011;43435;46.186;9.024;2024-03-08T19:15:09;19.92;;;11.07;;
57609;SDS011;43435;46.186;9.024;2024-03-08T19:17:35;15.68;;;10.25;;
57609;SDS011;43435;46.186;9.024;2024-03-08T19:20:02;18.70;;;11.15;;
57609;SDS011;43435;46.186;9.024;2024-03-08T19:22:31;15.93;;;9.70;;
57609;SDS011;43435;46.186;9.024;2024-03-08T19:24:57;19.45;;;10.85;;
57609;SDS011;43435;46.186;9.024;2024-03-08T19:27:22;17.42;;;9.75;;
57609;SDS011;43435;46.186;9.024;2024-03-08T19:29:47;16.33;;;10.23;;
57609;SDS011;43435;46.186;9.024;2024-03-08T19:32:13;15.13;;;9.57;;
57609;SDS011;43435;46.186;9.024;2024-03-08T19:34:38;14.80;;;9.73;;
57609;SDS011;43435;46.186;9.024;2024-03-08T19:37:04;15.60;;;9.63;;
57609;SDS011;43435;46.186;9.024;2024-03-08T19:39:33;17.25;;;10.00;;
57609;SDS011;43435;46.186;9.024;2024-03-08T19:42:00;14.40;;;8.55;;
57609;SDS011;43435;46.186;9.024;2024-03-08T19:44:25;13.63;;;8.60;;
57609;SDS011;43435;46.186;9.024;2024-03-08T19:46:50;16.58;;;9.65;;
57609;SDS011;43435;46.186;9.024;2024-03-08T19:49:16;15.27;;;8.32;;
57609;SDS011;43435;46.186;9.024;2024-03-08T19:51:42;16.85;;;9.00;;
57609;SDS011;43435;46.186;9.024;2024-03-08T19:54:07;14.82;;;9.48;;
57609;SDS011;43435;46.186;9.024;2024-03-08T19:56:33;15.25;;;9.10;;
57609;SDS011;43435;46.186;9.024;2024-03-08T19:59:00;17.58;;;8.90;;
57609;SDS011;43435;46.186;9.024;2024-03-08T20:01:28;14.38;;;8.63;;
57609;SDS011;43435;46.186;9.024;2024-03-08T20:03:54;14.98;;;9.25;;
57609;SDS011;43435;46.186;9.024;2024-03-08T20:06:20;16.88;;;9.20;;
57609;SDS011;43435;46.186;9.024;2024-03-08T20:08:46;15.75;;;9.20;;
57609;SDS011;43435;46.186;9.024;2024-03-08T20:11:12;15.80;;;8.48;;
57609;SDS011;43435;46.186;9.024;2024-03-08T20:13:38;15.55;;;8.88;;
57609;SDS011;43435;46.186;9.024;2024-03-08T20:16:04;14.93;;;9.10;;
57609;SDS011;43435;46.186;9.024;2024-03-08T20:18:29;15.80;;;9.02;;
57609;SDS011;43435;46.186;9.024;2024-03-08T20:20:57;14.18;;;8.32;;
57609;SDS011;43435;46.186;9.024;2024-03-08T20:23:22;16.80;;;8.93;;
57609;SDS011;43435;46.186;9.024;2024-03-08T20:25:49;15.50;;;8.80;;
57609;SDS011;43435;46.186;9.024;2024-03-08T20:28:14;13.38;;;8.65;;
57609;SDS011;43435;46.186;9.024;2024-03-08T20:30:40;16.45;;;8.80;;
57609;SDS011;43435;46.186;9.024;2024-03-08T20:33:07;13.68;;;8.10;;
57609;SDS011;43435;46.186;9.024;2024-03-08T20:35:33;14.27;;;7.55;;
57609;SDS011;43435;46.186;9.024;2024-03-08T20:38:00;14.18;;;8.00;;
57609;SDS011;43435;46.186;9.024;2024-03-08T20:40:32;14.95;;;8.68;;
57609;SDS011;43435;46.186;9.024;2024-03-08T20:43:04;13.15;;;7.75;;
57609;SDS011;43435;46.186;9.024;2024-03-08T20:45:33;16.10;;;9.38;;
57609;SDS011;43435;46.186;9.024;2024-03-08T20:47:59;17.13;;;9.80;;
